sensor_id;sensor_type;location;lat;lon;timestamp;P1;durP1;ratioP1;P2;durP2;ratioP2
22468;SDS011;11401;50.792;4.352;2023-04-24T00:01:34;11.75;;;6.70;;
22468;SDS011;11401;50.792;4.352;2023-04-24T00:04:03;12.18;;;6.35;;
22468;SDS011;11401;50.792;4.352;2023-04-24T00:06:30;10.02;;;6.65;;
22468;SDS011;11401;50.792;4.352;2023-04-24T00:09:00;5.20;;;3.70;;
22468;SDS011;11401;50.792;4.352;2023-04-24T00:11:27;11.43;;;6.65;;
22468;SDS011;11401;50.792;4.352;2023-04-24T00:13:55;5.68;;;4.63;;
22468;SDS011;11401;50.792;4.352;2023-04-24T00:16:22;10.38;;;6.68;;
22468;SDS011;11401;50.792;4.352;2023-04-24T00:18:50;7.65;;;6.10;;
22468;SDS011;11401;50.792;4.352;2023-04-24T00:21:19;9.45;;;6.15;;
22468;SDS011;11401;50.792;4.352;2023-04-24T00:23:47;14.05;;;6.63;;
22468;SDS011;11401;50.792;4.352;2023-04-24T00:26:14;13.07;;;7.38;;
22468;SDS011;11401;50.792;4.352;2023-04-24T00:28:41;7.72;;;6.20;;
22468;SDS011;11401;50.792;4.352;2023-04-24T00:31:08;11.07;;;5.50;;
22468;SDS011;11401;50.792;4.352;2023-04-24T00:33:35;8.48;;;6.00;;
22468;SDS011;11401;50.792;4.352;2023-04-24T00:36:02;7.20;;;5.60;;
22468;SDS011;11401;50.792;4.352;2023-04-24T00:38:29;10.15;;;6.50;;
22468;SDS011;11401;50.792;4.352;2023-04-24T00:40:56;8.70;;;5.80;;
22468;SDS011;11401;50.792;4.352;2023-04-24T00:43:23;13.85;;;7.40;;
22468;SDS011;11401;50.792;4.352;2023-04-24T00:45:51;7.43;;;4.93;;
22468;SDS011;11401;50.792;4.352;2023-04-24T00:48:18;15.07;;;6.85;;
22468;SDS011;11401;50.792;4.352;2023-04-24T00:50:46;8.60;;;5.47;;
22468;SDS011;11401;50.792;4.352;2023-04-24T00:53:13;10.95;;;5.78;;
22468;SDS011;11401;50.792;4.352;2023-04-24T00:55:41;6.05;;;4.80;;
22468;SDS011;11401;50.792;4.352;2023-04-24T00:58:08;11.75;;;5.57;;
22468;SDS011;11401;50.792;4.352;2023-04-24T01:00:35;11.23;;;7.22;;
22468;SDS011;11401;50.792;4.352;2023-04-24T01:03:03;11.80;;;6.63;;
22468;SDS011;11401;50.792;4.352;2023-04-24T01:05:32;7.25;;;4.63;;
22468;SDS011;11401;50.792;4.352;2023-04-24T01:08:00;9.80;;;7.45;;
22468;SDS011;11401;50.792;4.352;2023-04-24T01:10:29;9.18;;;6.38;;
22468;SDS011;11401;50.792;4.352;2023-04-24T01:12:58;8.25;;;5.63;;
22468;SDS011;11401;50.792;4.352;2023-04-24T01:15:26;7.88;;;6.60;;
22468;SDS011;11401;50.792;4.352;2023-04-24T01:17:53;8.68;;;6.13;;
22468;SDS011;11401;50.792;4.352;2023-04-24T01:20:20;8.15;;;5.05;;
22468;SDS011;11401;50.792;4.352;2023-04-24T01:22:47;9.63;;;5.70;;
22468;SDS011;11401;50.792;4.352;2023-04-24T01:25:14;15.20;;;6.00;;
22468;SDS011;11401;50.792;4.352;2023-04-24T01:27:41;7.25;;;5.32;;
22468;SDS011;11401;50.792;4.352;2023-04-24T01:30:10;7.28;;;5.22;;
22468;SDS011;11401;50.792;4.352;2023-04-24T01:32:38;10.15;;;5.75;;
22468;SDS011;11401;50.792;4.352;2023-04-24T01:35:07;5.32;;;4.40;;
22468;SDS011;11401;50.792;4.352;2023-04-24T01:37:34;9.13;;;5.95;;
22468;SDS011;11401;50.792;4.352;2023-04-24T01:40:04;8.43;;;4.63;;
22468;SDS011;11401;50.792;4.352;2023-04-24T01:42:33;5.22;;;4.75;;
22468;SDS011;11401;50.792;4.352;2023-04-24T01:45:02;8.27;;;5.45;;
22468;SDS011;11401;50.792;4.352;2023-04-24T01:47:30;7.80;;;6.22;;
22468;SDS011;11401;50.792;4.352;2023-04-24T01:49:58;13.38;;;5.72;;
22468;SDS011;11401;50.792;4.352;2023-04-24T01:52:25;7.00;;;5.90;;
22468;SDS011;11401;50.792;4.352;2023-04-24T01:54:53;7.35;;;4.82;;
22468;SDS011;11401;50.792;4.352;2023-04-24T01:57:22;8.40;;;5.85;;
22468;SDS011;11401;50.792;4.352;2023-04-24T01:59:49;6.13;;;4.05;;
22468;SDS011;11401;50.792;4.352;2023-04-24T02:02:17;8.52;;;5.72;;
22468;SDS011;11401;50.792;4.352;2023-04-24T02:04:45;7.32;;;5.85;;
22468;SDS011;11401;50.792;4.352;2023-04-24T02:07:11;7.47;;;5.85;;
22468;SDS011;11401;50.792;4.352;2023-04-24T02:09:38;8.32;;;5.35;;
22468;SDS011;11401;50.792;4.352;2023-04-24T02:12:06;7.78;;;6.38;;
22468;SDS011;11401;50.792;4.352;2023-04-24T02:14:33;9.68;;;6.80;;
22468;SDS011;11401;50.792;4.352;2023-04-24T02:17:00;6.95;;;5.07;;
22468;SDS011;11401;50.792;4.352;2023-04-24T02:19:27;7.78;;;5.07;;
22468;SDS011;11401;50.792;4.352;2023-04-24T02:21:54;5.88;;;3.45;;
22468;SDS011;11401;50.792;4.352;2023-04-24T02:24:21;7.95;;;6.40;;
22468;SDS011;11401;50.792;4.352;2023-04-24T02:26:48;4.07;;;3.67;;
22468;SDS011;11401;50.792;4.352;2023-04-24T02:29:15;8.82;;;5.88;;
22468;SDS011;11401;50.792;4.352;2023-04-24T02:31:42;8.15;;;6.75;;
22468;SDS011;11401;50.792;4.352;2023-04-24T02:34:09;4.38;;;3.97;;
22468;SDS011;11401;50.792;4.352;2023-04-24T02:36:37;7.88;;;5.47;;
22468;SDS011;11401;50.792;4.352;2023-04-24T02:39:04;8.15;;;5.40;;
22468;SDS011;11401;50.792;4.352;2023-04-24T02:41:31;6.78;;;5.63;;
22468;SDS011;11401;50.792;4.352;2023-04-24T02:43:59;10.98;;;6.35;;
22468;SDS011;11401;50.792;4.352;2023-04-24T02:46:26;6.57;;;4.95;;
22468;SDS011;11401;50.792;4.352;2023-04-24T02:48:53;8.32;;;5.65;;
22468;SDS011;11401;50.792;4.352;2023-04-24T02:51:20;7.63;;;5.00;;
22468;SDS011;11401;50.792;4.352;2023-04-24T02:53:47;4.13;;;3.70;;
22468;SDS011;11401;50.792;4.352;2023-04-24T02:56:14;10.73;;;5.75;;
22468;SDS011;11401;50.792;4.352;2023-04-24T02:58:41;6.90;;;4.93;;
22468;SDS011;11401;50.792;4.352;2023-04-24T03:01:09;8.13;;;5.22;;
22468;SDS011;11401;50.792;4.352;2023-04-24T03:03:37;7.72;;;5.00;;
22468;SDS011;11401;50.792;4.352;2023-04-24T03:06:05;7.82;;;4.97;;
22468;SDS011;11401;50.792;4.352;2023-04-24T03:08:34;7.07;;;4.68;;
22468;SDS011;11401;50.792;4.352;2023-04-24T03:11:02;5.65;;;4.47;;
22468;SDS011;11401;50.792;4.352;2023-04-24T03:13:30;7.00;;;4.50;;
22468;SDS011;11401;50.792;4.352;2023-04-24T03:15:57;5.03;;;4.30;;
22468;SDS011;11401;50.792;4.352;2023-04-24T03:18:26;5.45;;;3.75;;
22468;SDS011;11401;50.792;4.352;2023-04-24T03:20:53;4.82;;;3.70;;
22468;SDS011;11401;50.792;4.352;2023-04-24T03:23:21;4.57;;;3.40;;
22468;SDS011;11401;50.792;4.352;2023-04-24T03:25:48;6.75;;;5.20;;
22468;SDS011;11401;50.792;4.352;2023-04-24T03:28:17;5.78;;;4.32;;
22468;SDS011;11401;50.792;4.352;2023-04-24T03:30:57;5.47;;;4.93;;
22468;SDS011;11401;50.792;4.352;2023-04-24T03:33:30;5.30;;;4.80;;
22468;SDS011;11401;50.792;4.352;2023-04-24T03:36:00;8.63;;;5.25;;
22468;SDS011;11401;50.792;4.352;2023-04-24T03:38:35;6.40;;;4.63;;
22468;SDS011;11401;50.792;4.352;2023-04-24T03:41:17;6.88;;;4.97;;
22468;SDS011;11401;50.792;4.352;2023-04-24T03:43:49;5.07;;;4.60;;
22468;SDS011;11401;50.792;4.352;2023-04-24T03:46:16;6.15;;;4.57;;
22468;SDS011;11401;50.792;4.352;2023-04-24T03:48:50;4.68;;;4.22;;
22468;SDS011;11401;50.792;4.352;2023-04-24T03:51:19;5.07;;;4.35;;
22468;SDS011;11401;50.792;4.352;2023-04-24T03:53:49;5.55;;;4.38;;
22468;SDS011;11401;50.792;4.352;2023-04-24T03:56:19;4.85;;;3.50;;
22468;SDS011;11401;50.792;4.352;2023-04-24T03:58:47;5.43;;;4.25;;
22468;SDS011;11401;50.792;4.352;2023-04-24T04:01:14;4.22;;;3.05;;
22468;SDS011;11401;50.792;4.352;2023-04-24T04:03:50;5.25;;;4.40;;
22468;SDS011;11401;50.792;4.352;2023-04-24T04:06:21;3.67;;;3.38;;
22468;SDS011;11401;50.792;4.352;2023-04-24T04:08:50;7.07;;;3.88;;
22468;SDS011;11401;50.792;4.352;2023-04-24T04:11:17;7.95;;;3.83;;
22468;SDS011;11401;50.792;4.352;2023-04-24T04:13:44;4.53;;;3.15;;
22468;SDS011;11401;50.792;4.352;2023-04-24T04:16:16;3.30;;;2.85;;
22468;SDS011;11401;50.792;4.352;2023-04-24T04:18:45;4.07;;;2.78;;
22468;SDS011;11401;50.792;4.352;2023-04-24T04:21:13;3.30;;;3.00;;
22468;SDS011;11401;50.792;4.352;2023-04-24T04:23:40;3.85;;;2.85;;
22468;SDS011;11401;50.792;4.352;2023-04-24T04:26:18;4.28;;;3.28;;
22468;SDS011;11401;50.792;4.352;2023-04-24T04:29:00;3.53;;;3.10;;
22468;SDS011;11401;50.792;4.352;2023-04-24T04:31:28;7.00;;;2.90;;
22468;SDS011;11401;50.792;4.352;2023-04-24T04:34:00;3.05;;;2.85;;
22468;SDS011;11401;50.792;4.352;2023-04-24T04:36:30;3.10;;;2.85;;
22468;SDS011;11401;50.792;4.352;2023-04-24T04:39:06;3.13;;;2.85;;
22468;SDS011;11401;50.792;4.352;2023-04-24T04:41:53;4.20;;;3.20;;
22468;SDS011;11401;50.792;4.352;2023-04-24T04:44:24;3.03;;;2.78;;
22468;SDS011;11401;50.792;4.352;2023-04-24T04:46:56;3.30;;;2.90;;
22468;SDS011;11401;50.792;4.352;2023-04-24T04:49:26;3.90;;;3.50;;
22468;SDS011;11401;50.792;4.352;2023-04-24T04:51:55;4.05;;;3.35;;
22468;SDS011;11401;50.792;4.352;2023-04-24T04:54:24;3.78;;;3.45;;
22468;SDS011;11401;50.792;4.352;2023-04-24T04:56:52;6.30;;;3.47;;
22468;SDS011;11401;50.792;4.352;2023-04-24T04:59:20;5.47;;;3.55;;
22468;SDS011;11401;50.792;4.352;2023-04-24T05:01:50;5.22;;;3.95;;
22468;SDS011;11401;50.792;4.352;2023-04-24T05:04:17;4.65;;;3.90;;
22468;SDS011;11401;50.792;4.352;2023-04-24T05:06:45;7.45;;;5.20;;
22468;SDS011;11401;50.792;4.352;2023-04-24T05:09:14;7.93;;;4.22;;
22468;SDS011;11401;50.792;4.352;2023-04-24T05:11:51;6.93;;;4.82;;
22468;SDS011;11401;50.792;4.352;2023-04-24T05:14:19;11.05;;;5.30;;
22468;SDS011;11401;50.792;4.352;2023-04-24T05:16:48;7.63;;;5.20;;
22468;SDS011;11401;50.792;4.352;2023-04-24T05:19:18;8.80;;;5.30;;
22468;SDS011;11401;50.792;4.352;2023-04-24T05:21:45;7.78;;;4.30;;
22468;SDS011;11401;50.792;4.352;2023-04-24T05:24:12;8.00;;;5.07;;
22468;SDS011;11401;50.792;4.352;2023-04-24T05:26:58;9.18;;;5.07;;
22468;SDS011;11401;50.792;4.352;2023-04-24T05:29:32;8.90;;;4.32;;
22468;SDS011;11401;50.792;4.352;2023-04-24T05:31:59;8.20;;;5.68;;
22468;SDS011;11401;50.792;4.352;2023-04-24T05:34:28;6.45;;;5.43;;
22468;SDS011;11401;50.792;4.352;2023-04-24T05:36:56;6.68;;;4.88;;
22468;SDS011;11401;50.792;4.352;2023-04-24T05:39:24;9.80;;;5.88;;
22468;SDS011;11401;50.792;4.352;2023-04-24T05:41:52;6.97;;;5.05;;
22468;SDS011;11401;50.792;4.352;2023-04-24T05:44:20;9.85;;;5.63;;
22468;SDS011;11401;50.792;4.352;2023-04-24T05:46:47;11.20;;;6.03;;
22468;SDS011;11401;50.792;4.352;2023-04-24T05:49:15;6.93;;;5.45;;
22468;SDS011;11401;50.792;4.352;2023-04-24T05:51:44;8.32;;;4.75;;
22468;SDS011;11401;50.792;4.352;2023-04-24T05:54:11;8.80;;;5.28;;
22468;SDS011;11401;50.792;4.352;2023-04-24T05:56:39;11.50;;;6.07;;
22468;SDS011;11401;50.792;4.352;2023-04-24T05:59:11;8.10;;;5.15;;
22468;SDS011;11401;50.792;4.352;2023-04-24T06:01:39;9.43;;;5.53;;
22468;SDS011;11401;50.792;4.352;2023-04-24T06:04:14;12.93;;;6.93;;
22468;SDS011;11401;50.792;4.352;2023-04-24T06:06:42;7.88;;;5.03;;
22468;SDS011;11401;50.792;4.352;2023-04-24T06:09:09;9.63;;;5.78;;
22468;SDS011;11401;50.792;4.352;2023-04-24T06:11:36;8.20;;;6.00;;
22468;SDS011;11401;50.792;4.352;2023-04-24T06:14:04;7.95;;;5.68;;
22468;SDS011;11401;50.792;4.352;2023-04-24T06:16:37;10.48;;;6.07;;
22468;SDS011;11401;50.792;4.352;2023-04-24T06:19:16;10.52;;;5.60;;
22468;SDS011;11401;50.792;4.352;2023-04-24T06:21:43;7.55;;;5.13;;
22468;SDS011;11401;50.792;4.352;2023-04-24T06:24:10;11.27;;;5.68;;
22468;SDS011;11401;50.792;4.352;2023-04-24T06:26:37;6.20;;;5.40;;
22468;SDS011;11401;50.792;4.352;2023-04-24T06:29:06;9.00;;;6.90;;
22468;SDS011;11401;50.792;4.352;2023-04-24T06:31:34;9.18;;;6.70;;
22468;SDS011;11401;50.792;4.352;2023-04-24T06:34:04;8.75;;;5.32;;
22468;SDS011;11401;50.792;4.352;2023-04-24T06:36:31;7.95;;;6.18;;
22468;SDS011;11401;50.792;4.352;2023-04-24T06:39:01;12.18;;;6.82;;
22468;SDS011;11401;50.792;4.352;2023-04-24T06:41:28;9.32;;;6.70;;
22468;SDS011;11401;50.792;4.352;2023-04-24T06:43:55;7.32;;;5.55;;
22468;SDS011;11401;50.792;4.352;2023-04-24T06:46:22;11.52;;;6.07;;
22468;SDS011;11401;50.792;4.352;2023-04-24T06:48:53;13.60;;;6.70;;
22468;SDS011;11401;50.792;4.352;2023-04-24T06:51:23;12.57;;;7.05;;
22468;SDS011;11401;50.792;4.352;2023-04-24T06:53:53;10.63;;;6.03;;
22468;SDS011;11401;50.792;4.352;2023-04-24T06:56:20;10.18;;;6.45;;
22468;SDS011;11401;50.792;4.352;2023-04-24T06:58:48;14.95;;;8.00;;
22468;SDS011;11401;50.792;4.352;2023-04-24T07:01:15;12.07;;;7.13;;
22468;SDS011;11401;50.792;4.352;2023-04-24T07:03:42;8.82;;;5.78;;
22468;SDS011;11401;50.792;4.352;2023-04-24T07:06:10;8.70;;;5.93;;
22468;SDS011;11401;50.792;4.352;2023-04-24T07:08:40;13.23;;;7.22;;
22468;SDS011;11401;50.792;4.352;2023-04-24T07:11:08;12.70;;;7.80;;
22468;SDS011;11401;50.792;4.352;2023-04-24T07:13:35;13.10;;;6.85;;
22468;SDS011;11401;50.792;4.352;2023-04-24T07:16:02;12.90;;;7.82;;
22468;SDS011;11401;50.792;4.352;2023-04-24T07:18:29;12.90;;;7.07;;
22468;SDS011;11401;50.792;4.352;2023-04-24T07:20:57;17.23;;;7.88;;
22468;SDS011;11401;50.792;4.352;2023-04-24T07:23:24;13.35;;;6.75;;
22468;SDS011;11401;50.792;4.352;2023-04-24T07:25:51;12.43;;;7.00;;
22468;SDS011;11401;50.792;4.352;2023-04-24T07:28:18;11.68;;;7.25;;
22468;SDS011;11401;50.792;4.352;2023-04-24T07:30:45;11.23;;;6.50;;
22468;SDS011;11401;50.792;4.352;2023-04-24T07:33:12;15.88;;;7.65;;
22468;SDS011;11401;50.792;4.352;2023-04-24T07:35:39;13.68;;;7.32;;
22468;SDS011;11401;50.792;4.352;2023-04-24T07:38:06;13.30;;;7.95;;
22468;SDS011;11401;50.792;4.352;2023-04-24T07:40:33;11.40;;;7.18;;
22468;SDS011;11401;50.792;4.352;2023-04-24T07:43:00;12.50;;;7.60;;
22468;SDS011;11401;50.792;4.352;2023-04-24T07:45:27;10.00;;;7.03;;
22468;SDS011;11401;50.792;4.352;2023-04-24T07:47:54;17.70;;;8.23;;
22468;SDS011;11401;50.792;4.352;2023-04-24T07:50:22;15.13;;;8.07;;
22468;SDS011;11401;50.792;4.352;2023-04-24T07:52:49;9.32;;;6.80;;
22468;SDS011;11401;50.792;4.352;2023-04-24T07:55:16;10.68;;;7.47;;
22468;SDS011;11401;50.792;4.352;2023-04-24T07:57:46;9.77;;;6.68;;
22468;SDS011;11401;50.792;4.352;2023-04-24T08:00:14;12.27;;;6.85;;
22468;SDS011;11401;50.792;4.352;2023-04-24T08:02:41;9.52;;;6.65;;
22468;SDS011;11401;50.792;4.352;2023-04-24T08:05:08;10.23;;;6.93;;
22468;SDS011;11401;50.792;4.352;2023-04-24T08:07:36;11.13;;;6.35;;
22468;SDS011;11401;50.792;4.352;2023-04-24T08:10:04;11.23;;;5.93;;
22468;SDS011;11401;50.792;4.352;2023-04-24T08:12:31;13.10;;;6.95;;
22468;SDS011;11401;50.792;4.352;2023-04-24T08:14:59;10.77;;;6.65;;
22468;SDS011;11401;50.792;4.352;2023-04-24T08:17:26;19.60;;;6.93;;
22468;SDS011;11401;50.792;4.352;2023-04-24T08:19:53;10.55;;;6.22;;
22468;SDS011;11401;50.792;4.352;2023-04-24T08:22:27;11.95;;;6.45;;
22468;SDS011;11401;50.792;4.352;2023-04-24T08:24:55;9.55;;;6.10;;
22468;SDS011;11401;50.792;4.352;2023-04-24T08:27:23;8.38;;;5.43;;
22468;SDS011;11401;50.792;4.352;2023-04-24T08:29:50;10.13;;;5.68;;
22468;SDS011;11401;50.792;4.352;2023-04-24T08:32:19;11.77;;;4.97;;
22468;SDS011;11401;50.792;4.352;2023-04-24T08:34:46;6.40;;;5.55;;
22468;SDS011;11401;50.792;4.352;2023-04-24T08:37:15;10.63;;;5.90;;
22468;SDS011;11401;50.792;4.352;2023-04-24T08:39:42;9.10;;;6.05;;
22468;SDS011;11401;50.792;4.352;2023-04-24T08:42:09;9.45;;;5.10;;
22468;SDS011;11401;50.792;4.352;2023-04-24T08:44:39;9.35;;;5.30;;
22468;SDS011;11401;50.792;4.352;2023-04-24T08:47:07;12.27;;;5.38;;
22468;SDS011;11401;50.792;4.352;2023-04-24T08:49:35;10.65;;;5.28;;
22468;SDS011;11401;50.792;4.352;2023-04-24T08:52:07;10.40;;;5.13;;
22468;SDS011;11401;50.792;4.352;2023-04-24T08:54:34;7.65;;;4.80;;
22468;SDS011;11401;50.792;4.352;2023-04-24T08:57:02;9.07;;;4.85;;
22468;SDS011;11401;50.792;4.352;2023-04-24T08:59:30;11.32;;;5.82;;
22468;SDS011;11401;50.792;4.352;2023-04-24T09:01:59;7.03;;;4.60;;
22468;SDS011;11401;50.792;4.352;2023-04-24T09:04:27;5.43;;;3.63;;
22468;SDS011;11401;50.792;4.352;2023-04-24T09:06:57;6.53;;;4.40;;
22468;SDS011;11401;50.792;4.352;2023-04-24T09:09:24;6.13;;;3.90;;
22468;SDS011;11401;50.792;4.352;2023-04-24T09:11:52;8.65;;;4.43;;
22468;SDS011;11401;50.792;4.352;2023-04-24T09:14:23;7.95;;;4.30;;
22468;SDS011;11401;50.792;4.352;2023-04-24T09:16:50;6.57;;;4.22;;
22468;SDS011;11401;50.792;4.352;2023-04-24T09:19:19;9.43;;;3.95;;
22468;SDS011;11401;50.792;4.352;2023-04-24T09:21:48;5.10;;;3.58;;
22468;SDS011;11401;50.792;4.352;2023-04-24T09:24:16;10.82;;;4.07;;
22468;SDS011;11401;50.792;4.352;2023-04-24T09:26:46;6.05;;;4.00;;
22468;SDS011;11401;50.792;4.352;2023-04-24T09:29:14;5.95;;;4.30;;
22468;SDS011;11401;50.792;4.352;2023-04-24T09:31:43;4.68;;;4.00;;
22468;SDS011;11401;50.792;4.352;2023-04-24T09:34:12;4.80;;;3.42;;
22468;SDS011;11401;50.792;4.352;2023-04-24T09:36:41;7.35;;;3.55;;
22468;SDS011;11401;50.792;4.352;2023-04-24T09:39:10;7.72;;;4.35;;
22468;SDS011;11401;50.792;4.352;2023-04-24T09:41:45;6.15;;;4.10;;
22468;SDS011;11401;50.792;4.352;2023-04-24T09:44:16;3.50;;;3.20;;
22468;SDS011;11401;50.792;4.352;2023-04-24T09:46:44;7.03;;;4.13;;
22468;SDS011;11401;50.792;4.352;2023-04-24T09:49:16;6.13;;;3.70;;
22468;SDS011;11401;50.792;4.352;2023-04-24T09:51:48;4.90;;;3.30;;
22468;SDS011;11401;50.792;4.352;2023-04-24T09:54:19;12.13;;;5.05;;
22468;SDS011;11401;50.792;4.352;2023-04-24T09:56:48;6.93;;;4.53;;
22468;SDS011;11401;50.792;4.352;2023-04-24T09:59:18;7.82;;;4.88;;
22468;SDS011;11401;50.792;4.352;2023-04-24T10:01:46;6.63;;;3.90;;
22468;SDS011;11401;50.792;4.352;2023-04-24T10:04:16;9.45;;;4.10;;
22468;SDS011;11401;50.792;4.352;2023-04-24T10:06:48;8.20;;;3.80;;
22468;SDS011;11401;50.792;4.352;2023-04-24T10:09:20;7.53;;;3.15;;
22468;SDS011;11401;50.792;4.352;2023-04-24T10:11:49;8.15;;;3.95;;
22468;SDS011;11401;50.792;4.352;2023-04-24T10:14:18;7.30;;;3.83;;
22468;SDS011;11401;50.792;4.352;2023-04-24T10:16:50;4.32;;;3.47;;
22468;SDS011;11401;50.792;4.352;2023-04-24T10:19:19;7.35;;;4.10;;
22468;SDS011;11401;50.792;4.352;2023-04-24T10:21:46;4.70;;;3.00;;
22468;SDS011;11401;50.792;4.352;2023-04-24T10:24:14;4.15;;;3.13;;
22468;SDS011;11401;50.792;4.352;2023-04-24T10:26:44;7.35;;;3.65;;
22468;SDS011;11401;50.792;4.352;2023-04-24T10:29:12;5.97;;;3.80;;
22468;SDS011;11401;50.792;4.352;2023-04-24T10:31:44;7.05;;;4.38;;
22468;SDS011;11401;50.792;4.352;2023-04-24T10:34:14;5.88;;;3.78;;
22468;SDS011;11401;50.792;4.352;2023-04-24T10:37:02;5.40;;;3.45;;
22468;SDS011;11401;50.792;4.352;2023-04-24T10:39:29;6.90;;;3.42;;
22468;SDS011;11401;50.792;4.352;2023-04-24T10:41:59;6.47;;;4.00;;
22468;SDS011;11401;50.792;4.352;2023-04-24T10:44:27;7.50;;;3.97;;
22468;SDS011;11401;50.792;4.352;2023-04-24T10:47:03;7.05;;;4.38;;
22468;SDS011;11401;50.792;4.352;2023-04-24T10:49:31;12.57;;;4.93;;
22468;SDS011;11401;50.792;4.352;2023-04-24T10:52:04;7.40;;;3.95;;
22468;SDS011;11401;50.792;4.352;2023-04-24T10:54:36;7.82;;;4.15;;
22468;SDS011;11401;50.792;4.352;2023-04-24T10:59:46;6.18;;;3.67;;
22468;SDS011;11401;50.792;4.352;2023-04-24T11:02:14;5.88;;;4.18;;
22468;SDS011;11401;50.792;4.352;2023-04-24T11:04:42;9.60;;;4.47;;
22468;SDS011;11401;50.792;4.352;2023-04-24T11:07:11;7.75;;;4.88;;
22468;SDS011;11401;50.792;4.352;2023-04-24T11:09:39;9.57;;;4.68;;
22468;SDS011;11401;50.792;4.352;2023-04-24T11:12:10;9.07;;;4.40;;
22468;SDS011;11401;50.792;4.352;2023-04-24T11:17:31;8.43;;;4.70;;
22468;SDS011;11401;50.792;4.352;2023-04-24T11:20:08;8.60;;;4.57;;
22468;SDS011;11401;50.792;4.352;2023-04-24T11:22:54;6.85;;;4.55;;
22468;SDS011;11401;50.792;4.352;2023-04-24T11:25:22;5.60;;;4.18;;
22468;SDS011;11401;50.792;4.352;2023-04-24T11:27:49;5.50;;;4.25;;
22468;SDS011;11401;50.792;4.352;2023-04-24T11:30:17;6.25;;;3.92;;
22468;SDS011;11401;50.792;4.352;2023-04-24T11:32:50;5.55;;;3.60;;
22468;SDS011;11401;50.792;4.352;2023-04-24T11:35:18;11.38;;;5.20;;
22468;SDS011;11401;50.792;4.352;2023-04-24T11:37:48;4.30;;;3.88;;
22468;SDS011;11401;50.792;4.352;2023-04-24T11:40:19;9.20;;;5.35;;
22468;SDS011;11401;50.792;4.352;2023-04-24T11:42:49;8.57;;;4.80;;
22468;SDS011;11401;50.792;4.352;2023-04-24T11:45:24;11.05;;;4.93;;
22468;SDS011;11401;50.792;4.352;2023-04-24T11:47:52;4.13;;;3.83;;
22468;SDS011;11401;50.792;4.352;2023-04-24T11:50:21;5.47;;;4.03;;
22468;SDS011;11401;50.792;4.352;2023-04-24T11:52:50;8.32;;;4.75;;
22468;SDS011;11401;50.792;4.352;2023-04-24T11:57:55;9.43;;;5.90;;
22468;SDS011;11401;50.792;4.352;2023-04-24T12:00:25;12.13;;;6.82;;
22468;SDS011;11401;50.792;4.352;2023-04-24T12:03:07;7.60;;;6.10;;
22468;SDS011;11401;50.792;4.352;2023-04-24T12:05:35;8.25;;;6.43;;
22468;SDS011;11401;50.792;4.352;2023-04-24T12:08:03;6.63;;;5.13;;
22468;SDS011;11401;50.792;4.352;2023-04-24T12:10:31;7.80;;;5.82;;
22468;SDS011;11401;50.792;4.352;2023-04-24T12:12:59;9.95;;;5.80;;
22468;SDS011;11401;50.792;4.352;2023-04-24T12:15:27;5.80;;;4.20;;
22468;SDS011;11401;50.792;4.352;2023-04-24T12:17:54;5.28;;;4.78;;
22468;SDS011;11401;50.792;4.352;2023-04-24T12:20:32;5.97;;;4.10;;
22468;SDS011;11401;50.792;4.352;2023-04-24T12:22:59;10.32;;;5.72;;
22468;SDS011;11401;50.792;4.352;2023-04-24T12:25:28;10.18;;;5.70;;
22468;SDS011;11401;50.792;4.352;2023-04-24T12:30:31;8.23;;;5.57;;
22468;SDS011;11401;50.792;4.352;2023-04-24T12:33:00;6.43;;;4.80;;
22468;SDS011;11401;50.792;4.352;2023-04-24T12:35:27;7.43;;;4.20;;
22468;SDS011;11401;50.792;4.352;2023-04-24T12:37:55;5.10;;;4.70;;
22468;SDS011;11401;50.792;4.352;2023-04-24T12:40:31;4.35;;;3.95;;
22468;SDS011;11401;50.792;4.352;2023-04-24T12:42:58;8.10;;;5.20;;
22468;SDS011;11401;50.792;4.352;2023-04-24T12:45:25;4.78;;;4.38;;
22468;SDS011;11401;50.792;4.352;2023-04-24T12:47:54;5.90;;;4.15;;
22468;SDS011;11401;50.792;4.352;2023-04-24T12:50:21;6.80;;;3.92;;
22468;SDS011;11401;50.792;4.352;2023-04-24T12:52:48;5.85;;;4.53;;
22468;SDS011;11401;50.792;4.352;2023-04-24T12:55:15;7.80;;;5.32;;
22468;SDS011;11401;50.792;4.352;2023-04-24T12:57:42;5.78;;;5.10;;
22468;SDS011;11401;50.792;4.352;2023-04-24T13:00:09;5.60;;;5.00;;
22468;SDS011;11401;50.792;4.352;2023-04-24T13:02:36;5.72;;;4.25;;
22468;SDS011;11401;50.792;4.352;2023-04-24T13:05:04;6.18;;;4.53;;
22468;SDS011;11401;50.792;4.352;2023-04-24T13:07:32;6.22;;;3.63;;
22468;SDS011;11401;50.792;4.352;2023-04-24T13:09:59;5.63;;;4.30;;
22468;SDS011;11401;50.792;4.352;2023-04-24T13:12:26;4.72;;;4.22;;
22468;SDS011;11401;50.792;4.352;2023-04-24T13:14:54;4.90;;;4.50;;
22468;SDS011;11401;50.792;4.352;2023-04-24T13:17:21;7.35;;;4.57;;
22468;SDS011;11401;50.792;4.352;2023-04-24T13:19:48;4.15;;;3.75;;
22468;SDS011;11401;50.792;4.352;2023-04-24T13:22:17;6.03;;;3.75;;
22468;SDS011;11401;50.792;4.352;2023-04-24T13:24:45;5.07;;;4.10;;
22468;SDS011;11401;50.792;4.352;2023-04-24T13:27:12;8.82;;;4.28;;
22468;SDS011;11401;50.792;4.352;2023-04-24T13:29:39;5.20;;;3.55;;
22468;SDS011;11401;50.792;4.352;2023-04-24T13:32:07;4.90;;;3.78;;
22468;SDS011;11401;50.792;4.352;2023-04-24T13:34:34;7.97;;;3.85;;
22468;SDS011;11401;50.792;4.352;2023-04-24T13:37:03;5.35;;;3.92;;
22468;SDS011;11401;50.792;4.352;2023-04-24T13:39:31;4.47;;;4.07;;
22468;SDS011;11401;50.792;4.352;2023-04-24T13:41:58;3.70;;;3.40;;
22468;SDS011;11401;50.792;4.352;2023-04-24T13:44:26;7.63;;;4.20;;
22468;SDS011;11401;50.792;4.352;2023-04-24T13:46:54;3.50;;;3.20;;
22468;SDS011;11401;50.792;4.352;2023-04-24T13:49:23;8.38;;;3.47;;
22468;SDS011;11401;50.792;4.352;2023-04-24T13:51:51;4.28;;;3.72;;
22468;SDS011;11401;50.792;4.352;2023-04-24T13:54:19;5.07;;;3.42;;
22468;SDS011;11401;50.792;4.352;2023-04-24T13:56:46;3.70;;;3.40;;
22468;SDS011;11401;50.792;4.352;2023-04-24T13:59:13;4.07;;;3.08;;
22468;SDS011;11401;50.792;4.352;2023-04-24T14:01:40;3.55;;;2.90;;
22468;SDS011;11401;50.792;4.352;2023-04-24T14:04:07;7.15;;;3.53;;
22468;SDS011;11401;50.792;4.352;2023-04-24T14:06:35;3.17;;;2.88;;
22468;SDS011;11401;50.792;4.352;2023-04-24T14:09:02;8.48;;;3.35;;
22468;SDS011;11401;50.792;4.352;2023-04-24T14:11:29;5.47;;;2.95;;
22468;SDS011;11401;50.792;4.352;2023-04-24T14:13:56;3.65;;;3.05;;
22468;SDS011;11401;50.792;4.352;2023-04-24T14:16:23;7.00;;;3.75;;
22468;SDS011;11401;50.792;4.352;2023-04-24T14:18:51;2.90;;;2.60;;
22468;SDS011;11401;50.792;4.352;2023-04-24T14:21:18;5.13;;;3.08;;
22468;SDS011;11401;50.792;4.352;2023-04-24T14:23:45;5.97;;;2.85;;
22468;SDS011;11401;50.792;4.352;2023-04-24T14:26:12;4.93;;;3.05;;
22468;SDS011;11401;50.792;4.352;2023-04-24T14:28:39;5.10;;;2.80;;
22468;SDS011;11401;50.792;4.352;2023-04-24T14:31:06;2.75;;;2.55;;
22468;SDS011;11401;50.792;4.352;2023-04-24T14:33:34;2.95;;;2.65;;
22468;SDS011;11401;50.792;4.352;2023-04-24T14:36:01;4.68;;;2.50;;
22468;SDS011;11401;50.792;4.352;2023-04-24T14:38:29;4.47;;;2.50;;
22468;SDS011;11401;50.792;4.352;2023-04-24T14:40:57;3.25;;;2.30;;
22468;SDS011;11401;50.792;4.352;2023-04-24T14:43:33;2.58;;;2.15;;
22468;SDS011;11401;50.792;4.352;2023-04-24T14:46:02;2.53;;;2.30;;
22468;SDS011;11401;50.792;4.352;2023-04-24T14:48:31;2.92;;;2.15;;
22468;SDS011;11401;50.792;4.352;2023-04-24T14:50:58;3.85;;;2.40;;
22468;SDS011;11401;50.792;4.352;2023-04-24T14:53:25;3.72;;;2.45;;
22468;SDS011;11401;50.792;4.352;2023-04-24T14:55:52;6.75;;;2.65;;
22468;SDS011;11401;50.792;4.352;2023-04-24T14:58:20;3.90;;;2.60;;
22468;SDS011;11401;50.792;4.352;2023-04-24T15:00:47;5.43;;;2.40;;
22468;SDS011;11401;50.792;4.352;2023-04-24T15:03:16;3.40;;;2.35;;
22468;SDS011;11401;50.792;4.352;2023-04-24T15:05:44;3.45;;;2.25;;